<?xml version="1.0" encoding="UTF-8" standalone="no" ?>
<gpx xmlns="http://www.topografix.com/GPX/1/1" xmlns:xsi="http://www.w3.org/2001/XMLSchema-instance" xsi:schemaLocation="http://www.topografix.com/GPX/1/1 http://www.topografix.com/GPX/1/1/gpx.xsd" version="1.1" creator="VisuGPX - https://www.visugpx.com">
  <metadata>
    <name>st germain epron thaon</name>
  </metadata>
  <trk>
    <name><![CDATA[13557593-16-8-21]]></name>
    <trkseg>
      <trkpt lat="49.19901" lon="-0.40932">
        <ele>66</ele>
        <time>2022-06-09T06:29:37Z</time>
      </trkpt>
      <trkpt lat="49.19918" lon="-0.40855">
        <ele>66</ele>
        <time>2022-06-09T06:29:46Z</time>
      </trkpt>
      <trkpt lat="49.1997" lon="-0.4082">
        <ele>67</ele>
        <time>2022-06-09T06:29:57Z</time>
      </trkpt>
      <trkpt lat="49.20099" lon="-0.40681">
        <ele>65</ele>
        <time>2022-06-09T06:30:25Z</time>
      </trkpt>
      <trkpt lat="49.20145" lon="-0.40571">
        <ele>67</ele>
        <time>2022-06-09T06:30:40Z</time>
      </trkpt>
      <trkpt lat="49.20205" lon="-0.40526">
        <ele>66</ele>
        <time>2022-06-09T06:30:52Z</time>
      </trkpt>
      <trkpt lat="49.20162" lon="-0.403">
        <ele>65</ele>
        <time>2022-06-09T06:31:19Z</time>
      </trkpt>
      <trkpt lat="49.2016" lon="-0.40095">
        <ele>65</ele>
        <time>2022-06-09T06:31:43Z</time>
      </trkpt>
      <trkpt lat="49.20159" lon="-0.39887">
        <ele>65</ele>
        <time>2022-06-09T06:32:07Z</time>
      </trkpt>
      <trkpt lat="49.20075" lon="-0.39567">
        <ele>63</ele>
        <time>2022-06-09T06:32:47Z</time>
      </trkpt>
      <trkpt lat="49.2023" lon="-0.39361">
        <ele>65</ele>
        <time>2022-06-09T06:33:24Z</time>
      </trkpt>
      <trkpt lat="49.20326" lon="-0.39151">
        <ele>68</ele>
        <time>2022-06-09T06:33:53Z</time>
      </trkpt>
      <trkpt lat="49.20436" lon="-0.39074">
        <ele>67</ele>
        <time>2022-06-09T06:34:15Z</time>
      </trkpt>
      <trkpt lat="49.20631" lon="-0.38816">
        <ele>67</ele>
        <time>2022-06-09T06:35:01Z</time>
      </trkpt>
      <trkpt lat="49.20823" lon="-0.38563">
        <ele>68</ele>
        <time>2022-06-09T06:35:46Z</time>
      </trkpt>
      <trkpt lat="49.21006" lon="-0.38301">
        <ele>64</ele>
        <time>2022-06-09T06:36:31Z</time>
      </trkpt>
      <trkpt lat="49.21151" lon="-0.37979">
        <ele>64</ele>
        <time>2022-06-09T06:37:16Z</time>
      </trkpt>
      <trkpt lat="49.2121" lon="-0.37808">
        <ele>61</ele>
        <time>2022-06-09T06:37:38Z</time>
      </trkpt>
      <trkpt lat="49.21348" lon="-0.37597">
        <ele>59</ele>
        <time>2022-06-09T06:38:13Z</time>
      </trkpt>
      <trkpt lat="49.21551" lon="-0.37232">
        <ele>57</ele>
        <time>2022-06-09T06:39:09Z</time>
      </trkpt>
      <trkpt lat="49.21662" lon="-0.36936">
        <ele>57</ele>
        <time>2022-06-09T06:39:49Z</time>
      </trkpt>
      <trkpt lat="49.21931" lon="-0.36652">
        <ele>52</ele>
        <time>2022-06-09T06:40:47Z</time>
      </trkpt>
      <trkpt lat="49.22075" lon="-0.36712">
        <ele>51</ele>
        <time>2022-06-09T06:41:13Z</time>
      </trkpt>
      <trkpt lat="49.22169" lon="-0.36759">
        <ele>52</ele>
        <time>2022-06-09T06:41:31Z</time>
      </trkpt>
      <trkpt lat="49.22355" lon="-0.36857">
        <ele>51</ele>
        <time>2022-06-09T06:42:06Z</time>
      </trkpt>
      <trkpt lat="49.22563" lon="-0.36925">
        <ele>52</ele>
        <time>2022-06-09T06:42:44Z</time>
      </trkpt>
      <trkpt lat="49.22933" lon="-0.37066">
        <ele>55</ele>
        <time>2022-06-09T06:43:52Z</time>
      </trkpt>
      <trkpt lat="49.22976" lon="-0.37163">
        <ele>57</ele>
        <time>2022-06-09T06:44:05Z</time>
      </trkpt>
      <trkpt lat="49.22961" lon="-0.37235">
        <ele>55</ele>
        <time>2022-06-09T06:44:14Z</time>
      </trkpt>
      <trkpt lat="49.2313" lon="-0.37818">
        <ele>56</ele>
        <time>2022-06-09T06:45:28Z</time>
      </trkpt>
      <trkpt lat="49.23223" lon="-0.38114">
        <ele>56</ele>
        <time>2022-06-09T06:46:06Z</time>
      </trkpt>
      <trkpt lat="49.23328" lon="-0.38162">
        <ele>55</ele>
        <time>2022-06-09T06:46:26Z</time>
      </trkpt>
      <trkpt lat="49.23552" lon="-0.38398">
        <ele>55</ele>
        <time>2022-06-09T06:47:14Z</time>
      </trkpt>
      <trkpt lat="49.23723" lon="-0.38526">
        <ele>55</ele>
        <time>2022-06-09T06:47:48Z</time>
      </trkpt>
      <trkpt lat="49.24195" lon="-0.38923">
        <ele>56</ele>
        <time>2022-06-09T06:49:24Z</time>
      </trkpt>
      <trkpt lat="49.24789" lon="-0.39073">
        <ele>52</ele>
        <time>2022-06-09T06:51:11Z</time>
      </trkpt>
      <trkpt lat="49.24915" lon="-0.39108">
        <ele>51</ele>
        <time>2022-06-09T06:51:34Z</time>
      </trkpt>
      <trkpt lat="49.25023" lon="-0.3905">
        <ele>49</ele>
        <time>2022-06-09T06:51:54Z</time>
      </trkpt>
      <trkpt lat="49.2515" lon="-0.39125">
        <ele>52</ele>
        <time>2022-06-09T06:52:18Z</time>
      </trkpt>
      <trkpt lat="49.25237" lon="-0.39131">
        <ele>53</ele>
        <time>2022-06-09T06:52:34Z</time>
      </trkpt>
      <trkpt lat="49.25288" lon="-0.39179">
        <ele>53</ele>
        <time>2022-06-09T06:52:44Z</time>
      </trkpt>
      <trkpt lat="49.25473" lon="-0.39187">
        <ele>58</ele>
        <time>2022-06-09T06:53:17Z</time>
      </trkpt>
      <trkpt lat="49.25664" lon="-0.38958">
        <ele>57</ele>
        <time>2022-06-09T06:54:00Z</time>
      </trkpt>
      <trkpt lat="49.25866" lon="-0.3875">
        <ele>55</ele>
        <time>2022-06-09T06:54:44Z</time>
      </trkpt>
      <trkpt lat="49.26107" lon="-0.38481">
        <ele>53</ele>
        <time>2022-06-09T06:55:37Z</time>
      </trkpt>
      <trkpt lat="49.26132" lon="-0.38782">
        <ele>54</ele>
        <time>2022-06-09T06:56:12Z</time>
      </trkpt>
      <trkpt lat="49.26264" lon="-0.39093">
        <ele>53</ele>
        <time>2022-06-09T06:56:55Z</time>
      </trkpt>
      <trkpt lat="49.26447" lon="-0.39398">
        <ele>50</ele>
        <time>2022-06-09T06:57:43Z</time>
      </trkpt>
      <trkpt lat="49.26458" lon="-0.39505">
        <ele>51</ele>
        <time>2022-06-09T06:57:56Z</time>
      </trkpt>
      <trkpt lat="49.26544" lon="-0.39679">
        <ele>54</ele>
        <time>2022-06-09T06:58:21Z</time>
      </trkpt>
      <trkpt lat="49.26632" lon="-0.39872">
        <ele>57</ele>
        <time>2022-06-09T06:58:49Z</time>
      </trkpt>
      <trkpt lat="49.26699" lon="-0.4014">
        <ele>58</ele>
        <time>2022-06-09T06:59:22Z</time>
      </trkpt>
      <trkpt lat="49.26674" lon="-0.40196">
        <ele>59</ele>
        <time>2022-06-09T06:59:30Z</time>
      </trkpt>
      <trkpt lat="49.26642" lon="-0.4023">
        <ele>59</ele>
        <time>2022-06-09T06:59:37Z</time>
      </trkpt>
      <trkpt lat="49.26629" lon="-0.40346">
        <ele>59</ele>
        <time>2022-06-09T06:59:50Z</time>
      </trkpt>
      <trkpt lat="49.2661" lon="-0.40423">
        <ele>58</ele>
        <time>2022-06-09T07:00:00Z</time>
      </trkpt>
      <trkpt lat="49.26544" lon="-0.40505">
        <ele>59</ele>
        <time>2022-06-09T07:00:15Z</time>
      </trkpt>
      <trkpt lat="49.26554" lon="-0.40891">
        <ele>57</ele>
        <time>2022-06-09T07:01:00Z</time>
      </trkpt>
      <trkpt lat="49.26547" lon="-0.41144">
        <ele>54</ele>
        <time>2022-06-09T07:01:29Z</time>
      </trkpt>
      <trkpt lat="49.26485" lon="-0.41509">
        <ele>61</ele>
        <time>2022-06-09T07:02:13Z</time>
      </trkpt>
      <trkpt lat="49.26457" lon="-0.41751">
        <ele>59</ele>
        <time>2022-06-09T07:02:42Z</time>
      </trkpt>
      <trkpt lat="49.26477" lon="-0.42339">
        <ele>56</ele>
        <time>2022-06-09T07:03:50Z</time>
      </trkpt>
      <trkpt lat="49.26528" lon="-0.42751">
        <ele>53</ele>
        <time>2022-06-09T07:04:39Z</time>
      </trkpt>
      <trkpt lat="49.2654" lon="-0.43335">
        <ele>47</ele>
        <time>2022-06-09T07:05:46Z</time>
      </trkpt>
      <trkpt lat="49.26565" lon="-0.43927">
        <ele>41</ele>
        <time>2022-06-09T07:06:55Z</time>
      </trkpt>
      <trkpt lat="49.26367" lon="-0.44118">
        <ele>39</ele>
        <time>2022-06-09T07:07:37Z</time>
      </trkpt>
      <trkpt lat="49.26263" lon="-0.44242">
        <ele>30</ele>
        <time>2022-06-09T07:08:00Z</time>
      </trkpt>
      <trkpt lat="49.26192" lon="-0.44318">
        <ele>24</ele>
        <time>2022-06-09T07:08:16Z</time>
      </trkpt>
      <trkpt lat="49.26128" lon="-0.44412">
        <ele>25</ele>
        <time>2022-06-09T07:08:32Z</time>
      </trkpt>
      <trkpt lat="49.25911" lon="-0.44506">
        <ele>30</ele>
        <time>2022-06-09T07:09:12Z</time>
      </trkpt>
      <trkpt lat="49.25885" lon="-0.44608">
        <ele>28</ele>
        <time>2022-06-09T07:09:24Z</time>
      </trkpt>
      <trkpt lat="49.25958" lon="-0.44957">
        <ele>32</ele>
        <time>2022-06-09T07:10:07Z</time>
      </trkpt>
      <trkpt lat="49.2595" lon="-0.44981">
        <ele>31</ele>
        <time>2022-06-09T07:10:10Z</time>
      </trkpt>
      <trkpt lat="49.25878" lon="-0.45058">
        <ele>28</ele>
        <time>2022-06-09T07:10:26Z</time>
      </trkpt>
      <trkpt lat="49.2588" lon="-0.45115">
        <ele>29</ele>
        <time>2022-06-09T07:10:32Z</time>
      </trkpt>
      <trkpt lat="49.25845" lon="-0.45206">
        <ele>27</ele>
        <time>2022-06-09T07:10:45Z</time>
      </trkpt>
      <trkpt lat="49.25822" lon="-0.4533">
        <ele>27</ele>
        <time>2022-06-09T07:11:00Z</time>
      </trkpt>
      <trkpt lat="49.2583" lon="-0.45448">
        <ele>28</ele>
        <time>2022-06-09T07:11:13Z</time>
      </trkpt>
      <trkpt lat="49.25822" lon="-0.45572">
        <ele>28</ele>
        <time>2022-06-09T07:11:28Z</time>
      </trkpt>
      <trkpt lat="49.25807" lon="-0.45802">
        <ele>30</ele>
        <time>2022-06-09T07:11:55Z</time>
      </trkpt>
      <trkpt lat="49.25674" lon="-0.45832">
        <ele>29</ele>
        <time>2022-06-09T07:12:19Z</time>
      </trkpt>
      <trkpt lat="49.25229" lon="-0.45695">
        <ele>48</ele>
        <time>2022-06-09T07:13:39Z</time>
      </trkpt>
      <trkpt lat="49.24862" lon="-0.45613">
        <ele>47</ele>
        <time>2022-06-09T07:14:45Z</time>
      </trkpt>
      <trkpt lat="49.24716" lon="-0.45622">
        <ele>46</ele>
        <time>2022-06-09T07:15:11Z</time>
      </trkpt>
      <trkpt lat="49.24599" lon="-0.45875">
        <ele>48</ele>
        <time>2022-06-09T07:15:47Z</time>
      </trkpt>
      <trkpt lat="49.24442" lon="-0.46051">
        <ele>50</ele>
        <time>2022-06-09T07:16:22Z</time>
      </trkpt>
      <trkpt lat="49.24288" lon="-0.45686">
        <ele>50</ele>
        <time>2022-06-09T07:17:12Z</time>
      </trkpt>
      <trkpt lat="49.24178" lon="-0.45424">
        <ele>43</ele>
        <time>2022-06-09T07:17:49Z</time>
      </trkpt>
      <trkpt lat="49.24024" lon="-0.4527">
        <ele>36</ele>
        <time>2022-06-09T07:18:21Z</time>
      </trkpt>
      <trkpt lat="49.23895" lon="-0.45047">
        <ele>40</ele>
        <time>2022-06-09T07:18:56Z</time>
      </trkpt>
      <trkpt lat="49.23783" lon="-0.45055">
        <ele>40</ele>
        <time>2022-06-09T07:19:16Z</time>
      </trkpt>
      <trkpt lat="49.23077" lon="-0.45478">
        <ele>44</ele>
        <time>2022-06-09T07:21:31Z</time>
      </trkpt>
      <trkpt lat="49.22746" lon="-0.45744">
        <ele>47</ele>
        <time>2022-06-09T07:22:37Z</time>
      </trkpt>
      <trkpt lat="49.22315" lon="-0.46199">
        <ele>53</ele>
        <time>2022-06-09T07:24:11Z</time>
      </trkpt>
      <trkpt lat="49.21743" lon="-0.46654">
        <ele>51</ele>
        <time>2022-06-09T07:26:05Z</time>
      </trkpt>
      <trkpt lat="49.21395" lon="-0.47015">
        <ele>45</ele>
        <time>2022-06-09T07:27:20Z</time>
      </trkpt>
      <trkpt lat="49.21311" lon="-0.47203">
        <ele>49</ele>
        <time>2022-06-09T07:27:46Z</time>
      </trkpt>
      <trkpt lat="49.21048" lon="-0.47075">
        <ele>59</ele>
        <time>2022-06-09T07:28:36Z</time>
      </trkpt>
      <trkpt lat="49.20992" lon="-0.46886">
        <ele>59</ele>
        <time>2022-06-09T07:29:00Z</time>
      </trkpt>
      <trkpt lat="49.20947" lon="-0.46259">
        <ele>62</ele>
        <time>2022-06-09T07:30:13Z</time>
      </trkpt>
      <trkpt lat="49.2084" lon="-0.45427">
        <ele>65</ele>
        <time>2022-06-09T07:31:52Z</time>
      </trkpt>
      <trkpt lat="49.20565" lon="-0.44431">
        <ele>64</ele>
        <time>2022-06-09T07:33:57Z</time>
      </trkpt>
      <trkpt lat="49.20425" lon="-0.43796">
        <ele>66</ele>
        <time>2022-06-09T07:35:15Z</time>
      </trkpt>
      <trkpt lat="49.20574" lon="-0.43785">
        <ele>65</ele>
        <time>2022-06-09T07:35:42Z</time>
      </trkpt>
      <trkpt lat="49.20742" lon="-0.43708">
        <ele>65</ele>
        <time>2022-06-09T07:36:13Z</time>
      </trkpt>
      <trkpt lat="49.2075" lon="-0.43497">
        <ele>64</ele>
        <time>2022-06-09T07:36:38Z</time>
      </trkpt>
      <trkpt lat="49.20781" lon="-0.43334">
        <ele>65</ele>
        <time>2022-06-09T07:36:57Z</time>
      </trkpt>
      <trkpt lat="49.20672" lon="-0.43184">
        <ele>64</ele>
        <time>2022-06-09T07:37:23Z</time>
      </trkpt>
      <trkpt lat="49.20627" lon="-0.43012">
        <ele>65</ele>
        <time>2022-06-09T07:37:45Z</time>
      </trkpt>
      <trkpt lat="49.20563" lon="-0.42763">
        <ele>67</ele>
        <time>2022-06-09T07:38:16Z</time>
      </trkpt>
      <trkpt lat="49.20218" lon="-0.41862">
        <ele>68</ele>
        <time>2022-06-09T07:40:17Z</time>
      </trkpt>
      <trkpt lat="49.20178" lon="-0.41757">
        <ele>68</ele>
        <time>2022-06-09T07:40:31Z</time>
      </trkpt>
      <trkpt lat="49.19981" lon="-0.41316">
        <ele>68</ele>
        <time>2022-06-09T07:41:34Z</time>
      </trkpt>
      <trkpt lat="49.19849" lon="-0.41009">
        <ele>68</ele>
        <time>2022-06-09T07:42:16Z</time>
      </trkpt>
      <trkpt lat="49.19868" lon="-0.40973">
        <ele>67</ele>
        <time>2022-06-09T07:42:22Z</time>
      </trkpt>
    </trkseg>
  </trk>
</gpx>